sensor_id;sensor_type;location;lat;lon;timestamp;temperature;humidity
69770;SHT30;57282;52.514;13.458;2022-11-18T00:02:14;5.24;73.28
69770;SHT30;57282;52.514;13.458;2022-11-18T00:04:40;5.15;72.96
69770;SHT30;57282;52.514;13.458;2022-11-18T00:07:07;5.21;72.52
69770;SHT30;57282;52.514;13.458;2022-11-18T00:09:34;5.14;72.70
69770;SHT30;57282;52.514;13.458;2022-11-18T00:12:02;5.19;72.53
69770;SHT30;57282;52.514;13.458;2022-11-18T00:14:47;5.19;72.48
69770;SHT30;57282;52.514;13.458;2022-11-18T00:17:13;5.12;71.65
69770;SHT30;57282;52.514;13.458;2022-11-18T00:19:40;5.11;72.16
69770;SHT30;57282;52.514;13.458;2022-11-18T00:22:10;5.08;71.87
69770;SHT30;57282;52.514;13.458;2022-11-18T00:24:38;5.12;72.53
69770;SHT30;57282;52.514;13.458;2022-11-18T00:27:06;5.17;72.77
69770;SHT30;57282;52.514;13.458;2022-11-18T00:29:33;4.94;70.49
69770;SHT30;57282;52.514;13.458;2022-11-18T00:32:00;5.04;71.33
69770;SHT30;57282;52.514;13.458;2022-11-18T00:34:26;5.02;71.87
69770;SHT30;57282;52.514;13.458;2022-11-18T00:36:53;5.08;70.63
69770;SHT30;57282;52.514;13.458;2022-11-18T00:39:20;5.01;70.41
69770;SHT30;57282;52.514;13.458;2022-11-18T00:41:47;5.02;71.12
69770;SHT30;57282;52.514;13.458;2022-11-18T00:44:33;4.92;69.90
69770;SHT30;57282;52.514;13.458;2022-11-18T00:47:01;4.97;70.54
69770;SHT30;57282;52.514;13.458;2022-11-18T00:49:28;4.99;70.56
69770;SHT30;57282;52.514;13.458;2022-11-18T00:51:54;4.94;70.16
69770;SHT30;57282;52.514;13.458;2022-11-18T00:54:21;4.94;70.17
69770;SHT30;57282;52.514;13.458;2022-11-18T00:56:48;4.90;70.39
69770;SHT30;57282;52.514;13.458;2022-11-18T00:59:15;4.94;70.43
69770;SHT30;57282;52.514;13.458;2022-11-18T01:01:42;4.81;69.64
69770;SHT30;57282;52.514;13.458;2022-11-18T01:04:09;4.63;69.74
69770;SHT30;57282;52.514;13.458;2022-11-18T01:06:36;4.59;70.76
69770;SHT30;57282;52.514;13.458;2022-11-18T01:09:03;4.60;70.41
69770;SHT30;57282;52.514;13.458;2022-11-18T01:11:29;4.48;70.79
69770;SHT30;57282;52.514;13.458;2022-11-18T01:14:14;4.61;71.34
69770;SHT30;57282;52.514;13.458;2022-11-18T01:16:40;4.73;70.58
69770;SHT30;57282;52.514;13.458;2022-11-18T01:19:08;4.69;69.64
69770;SHT30;57282;52.514;13.458;2022-11-18T01:21:35;4.63;69.75
69770;SHT30;57282;52.514;13.458;2022-11-18T01:24:02;4.73;70.43
69770;SHT30;57282;52.514;13.458;2022-11-18T01:26:29;4.67;69.69
69770;SHT30;57282;52.514;13.458;2022-11-18T01:28:56;4.70;69.29
69770;SHT30;57282;52.514;13.458;2022-11-18T01:31:23;4.77;70.07
69770;SHT30;57282;52.514;13.458;2022-11-18T01:33:51;4.73;70.02
69770;SHT30;57282;52.514;13.458;2022-11-18T01:36:20;4.66;68.83
69770;SHT30;57282;52.514;13.458;2022-11-18T01:38:49;4.71;69.32
69770;SHT30;57282;52.514;13.458;2022-11-18T01:41:18;4.80;69.28
69770;SHT30;57282;52.514;13.458;2022-11-18T01:44:00;4.73;68.95
69770;SHT30;57282;52.514;13.458;2022-11-18T01:46:31;4.77;69.46
69770;SHT30;57282;52.514;13.458;2022-11-18T01:49:04;4.63;68.38
69770;SHT30;57282;52.514;13.458;2022-11-18T01:51:36;4.70;69.34
69770;SHT30;57282;52.514;13.458;2022-11-18T01:54:12;4.63;68.09
69770;SHT30;57282;52.514;13.458;2022-11-18T01:56:46;4.71;69.26
69770;SHT30;57282;52.514;13.458;2022-11-18T01:59:19;4.70;68.80
69770;SHT30;57282;52.514;13.458;2022-11-18T02:01:49;4.79;69.35
69770;SHT30;57282;52.514;13.458;2022-11-18T02:04:17;4.73;68.81
69770;SHT30;57282;52.514;13.458;2022-11-18T02:06:45;4.77;68.83
69770;SHT30;57282;52.514;13.458;2022-11-18T02:09:14;4.71;68.43
69770;SHT30;57282;52.514;13.458;2022-11-18T02:11:42;4.66;68.37
69770;SHT30;57282;52.514;13.458;2022-11-18T02:14:20;4.59;68.76
69770;SHT30;57282;52.514;13.458;2022-11-18T02:17:01;4.53;68.32
69770;SHT30;57282;52.514;13.458;2022-11-18T02:19:50;4.57;68.56
69770;SHT30;57282;52.514;13.458;2022-11-18T02:26:06;4.64;68.54
69770;SHT30;57282;52.514;13.458;2022-11-18T02:28:57;4.69;68.78
69770;SHT30;57282;52.514;13.458;2022-11-18T02:31:31;4.70;67.59
69770;SHT30;57282;52.514;13.458;2022-11-18T02:34:11;4.56;67.55
69770;SHT30;57282;52.514;13.458;2022-11-18T02:36:48;4.49;67.54
69770;SHT30;57282;52.514;13.458;2022-11-18T02:39:21;4.50;67.72
69770;SHT30;57282;52.514;13.458;2022-11-18T02:41:55;4.52;68.55
69770;SHT30;57282;52.514;13.458;2022-11-18T02:44:28;4.50;68.21
69770;SHT30;57282;52.514;13.458;2022-11-18T02:47:00;4.54;68.37
69770;SHT30;57282;52.514;13.458;2022-11-18T02:49:34;4.56;68.84
69770;SHT30;57282;52.514;13.458;2022-11-18T02:52:06;4.56;68.85
69770;SHT30;57282;52.514;13.458;2022-11-18T02:54:38;4.57;69.74
69770;SHT30;57282;52.514;13.458;2022-11-18T02:57:07;4.48;68.66
69770;SHT30;57282;52.514;13.458;2022-11-18T02:59:36;4.50;68.94
69770;SHT30;57282;52.514;13.458;2022-11-18T03:02:02;4.54;69.37
69770;SHT30;57282;52.514;13.458;2022-11-18T03:04:29;4.60;69.70
69770;SHT30;57282;52.514;13.458;2022-11-18T03:07:03;4.57;69.22
69770;SHT30;57282;52.514;13.458;2022-11-18T03:09:37;4.53;68.92
69770;SHT30;57282;52.514;13.458;2022-11-18T03:12:13;4.46;70.97
69770;SHT30;57282;52.514;13.458;2022-11-18T03:14:51;4.49;70.96
69770;SHT30;57282;52.514;13.458;2022-11-18T03:17:33;4.33;70.30
69770;SHT30;57282;52.514;13.458;2022-11-18T03:20:14;4.32;70.36
69770;SHT30;57282;52.514;13.458;2022-11-18T03:22:50;4.29;70.14
69770;SHT30;57282;52.514;13.458;2022-11-18T03:25:23;4.25;70.61
69770;SHT30;57282;52.514;13.458;2022-11-18T03:28:01;4.30;71.25
69770;SHT30;57282;52.514;13.458;2022-11-18T03:30:40;4.40;72.08
69770;SHT30;57282;52.514;13.458;2022-11-18T03:33:15;4.43;71.61
69770;SHT30;57282;52.514;13.458;2022-11-18T03:35:48;4.33;71.82
69770;SHT30;57282;52.514;13.458;2022-11-18T03:38:19;4.42;71.32
69770;SHT30;57282;52.514;13.458;2022-11-18T03:40:54;4.40;71.91
69770;SHT30;57282;52.514;13.458;2022-11-18T03:43:26;4.25;70.92
69770;SHT30;57282;52.514;13.458;2022-11-18T03:46:04;4.30;71.99
69770;SHT30;57282;52.514;13.458;2022-11-18T03:48:37;4.29;71.34
69770;SHT30;57282;52.514;13.458;2022-11-18T03:51:11;4.19;70.05
69770;SHT30;57282;52.514;13.458;2022-11-18T03:53:44;4.18;71.32
69770;SHT30;57282;52.514;13.458;2022-11-18T03:59:05;4.22;71.15
69770;SHT30;57282;52.514;13.458;2022-11-18T04:01:40;4.19;71.13
69770;SHT30;57282;52.514;13.458;2022-11-18T04:04:12;4.15;71.75
69770;SHT30;57282;52.514;13.458;2022-11-18T04:06:42;4.11;71.03
69770;SHT30;57282;52.514;13.458;2022-11-18T04:09:17;4.18;72.07
69770;SHT30;57282;52.514;13.458;2022-11-18T04:11:52;4.26;72.24
69770;SHT30;57282;52.514;13.458;2022-11-18T04:14:31;4.22;72.01
69770;SHT30;57282;52.514;13.458;2022-11-18T04:17:04;4.18;71.90
69770;SHT30;57282;52.514;13.458;2022-11-18T04:19:33;4.05;72.35
69770;SHT30;57282;52.514;13.458;2022-11-18T04:22:03;4.03;72.02
69770;SHT30;57282;52.514;13.458;2022-11-18T04:24:30;4.08;72.70
69770;SHT30;57282;52.514;13.458;2022-11-18T04:26:57;3.90;72.15
69770;SHT30;57282;52.514;13.458;2022-11-18T04:29:24;3.94;72.74
69770;SHT30;57282;52.514;13.458;2022-11-18T04:31:50;3.78;71.84
69770;SHT30;57282;52.514;13.458;2022-11-18T04:34:18;3.97;72.18
69770;SHT30;57282;52.514;13.458;2022-11-18T04:36:45;3.99;72.76
69770;SHT30;57282;52.514;13.458;2022-11-18T04:39:12;3.87;73.27
69770;SHT30;57282;52.514;13.458;2022-11-18T04:41:39;3.81;73.50
69770;SHT30;57282;52.514;13.458;2022-11-18T04:44:21;3.80;73.70
69770;SHT30;57282;52.514;13.458;2022-11-18T04:46:48;3.85;73.39
69770;SHT30;57282;52.514;13.458;2022-11-18T04:49:15;3.87;73.93
69770;SHT30;57282;52.514;13.458;2022-11-18T04:51:44;3.87;73.25
69770;SHT30;57282;52.514;13.458;2022-11-18T04:54:12;3.88;73.61
69770;SHT30;57282;52.514;13.458;2022-11-18T04:56:40;3.88;73.63
69770;SHT30;57282;52.514;13.458;2022-11-18T04:59:09;3.88;73.75
69770;SHT30;57282;52.514;13.458;2022-11-18T05:01:36;3.85;72.92
69770;SHT30;57282;52.514;13.458;2022-11-18T05:04:04;3.97;73.08
69770;SHT30;57282;52.514;13.458;2022-11-18T05:06:32;3.99;73.03
69770;SHT30;57282;52.514;13.458;2022-11-18T05:09:01;3.88;72.81
69770;SHT30;57282;52.514;13.458;2022-11-18T05:11:27;3.90;73.96
69770;SHT30;57282;52.514;13.458;2022-11-18T05:14:12;3.82;73.98
69770;SHT30;57282;52.514;13.458;2022-11-18T05:16:39;3.80;73.15
69770;SHT30;57282;52.514;13.458;2022-11-18T05:19:06;3.78;73.06
69770;SHT30;57282;52.514;13.458;2022-11-18T05:21:34;3.81;72.30
69770;SHT30;57282;52.514;13.458;2022-11-18T05:24:03;3.85;73.45
69770;SHT30;57282;52.514;13.458;2022-11-18T05:26:30;3.81;72.21
69770;SHT30;57282;52.514;13.458;2022-11-18T05:28:57;3.81;73.13
69770;SHT30;57282;52.514;13.458;2022-11-18T05:31:24;3.75;72.29
69770;SHT30;57282;52.514;13.458;2022-11-18T05:33:51;3.73;72.62
69770;SHT30;57282;52.514;13.458;2022-11-18T05:36:19;3.70;72.81
69770;SHT30;57282;52.514;13.458;2022-11-18T05:38:47;3.82;72.47
69770;SHT30;57282;52.514;13.458;2022-11-18T05:41:17;3.88;72.11
69770;SHT30;57282;52.514;13.458;2022-11-18T05:44:02;3.87;70.62
69770;SHT30;57282;52.514;13.458;2022-11-18T05:46:30;3.80;70.64
69770;SHT30;57282;52.514;13.458;2022-11-18T05:48:57;3.75;70.84
69770;SHT30;57282;52.514;13.458;2022-11-18T05:51:24;3.78;71.64
69770;SHT30;57282;52.514;13.458;2022-11-18T05:53:51;3.91;70.01
69770;SHT30;57282;52.514;13.458;2022-11-18T05:56:24;3.87;70.11
69770;SHT30;57282;52.514;13.458;2022-11-18T05:58:55;3.82;70.16
69770;SHT30;57282;52.514;13.458;2022-11-18T06:01:24;3.81;70.79
69770;SHT30;57282;52.514;13.458;2022-11-18T06:03:56;3.87;70.08
69770;SHT30;57282;52.514;13.458;2022-11-18T06:06:24;3.84;69.56
69770;SHT30;57282;52.514;13.458;2022-11-18T06:08:54;3.78;69.94
69770;SHT30;57282;52.514;13.458;2022-11-18T06:11:31;3.77;68.96
69770;SHT30;57282;52.514;13.458;2022-11-18T06:14:06;3.80;68.44
69770;SHT30;57282;52.514;13.458;2022-11-18T06:16:38;3.77;68.08
69770;SHT30;57282;52.514;13.458;2022-11-18T06:19:08;3.63;67.82
69770;SHT30;57282;52.514;13.458;2022-11-18T06:21:36;3.52;67.72
69770;SHT30;57282;52.514;13.458;2022-11-18T06:24:03;3.53;67.99
69770;SHT30;57282;52.514;13.458;2022-11-18T06:26:32;3.54;69.33
69770;SHT30;57282;52.514;13.458;2022-11-18T06:28:59;3.56;68.59
69770;SHT30;57282;52.514;13.458;2022-11-18T06:31:26;3.59;67.50
69770;SHT30;57282;52.514;13.458;2022-11-18T06:33:52;3.59;68.01
69770;SHT30;57282;52.514;13.458;2022-11-18T06:36:19;3.61;66.90
69770;SHT30;57282;52.514;13.458;2022-11-18T06:38:46;3.37;66.90
69770;SHT30;57282;52.514;13.458;2022-11-18T06:41:12;3.40;67.58
69770;SHT30;57282;52.514;13.458;2022-11-18T06:43:40;3.40;67.60
69770;SHT30;57282;52.514;13.458;2022-11-18T06:46:08;3.43;66.94
69770;SHT30;57282;52.514;13.458;2022-11-18T06:48:54;3.46;67.14
69770;SHT30;57282;52.514;13.458;2022-11-18T06:51:21;3.44;66.83
69770;SHT30;57282;52.514;13.458;2022-11-18T06:53:49;3.27;65.18
69770;SHT30;57282;52.514;13.458;2022-11-18T06:56:17;3.34;65.43
69770;SHT30;57282;52.514;13.458;2022-11-18T06:58:51;3.34;65.91
69770;SHT30;57282;52.514;13.458;2022-11-18T07:01:20;3.30;65.03
69770;SHT30;57282;52.514;13.458;2022-11-18T07:03:48;3.33;65.93
69770;SHT30;57282;52.514;13.458;2022-11-18T07:06:16;3.23;65.82
69770;SHT30;57282;52.514;13.458;2022-11-18T07:08:44;3.24;64.90
69770;SHT30;57282;52.514;13.458;2022-11-18T07:11:12;3.30;65.09
69770;SHT30;57282;52.514;13.458;2022-11-18T07:13:40;3.30;64.43
69770;SHT30;57282;52.514;13.458;2022-11-18T07:16:10;3.26;64.30
69770;SHT30;57282;52.514;13.458;2022-11-18T07:18:39;3.12;64.64
69770;SHT30;57282;52.514;13.458;2022-11-18T07:21:08;3.13;65.10
69770;SHT30;57282;52.514;13.458;2022-11-18T07:23:38;3.22;65.38
69770;SHT30;57282;52.514;13.458;2022-11-18T07:26:05;3.22;66.57
69770;SHT30;57282;52.514;13.458;2022-11-18T07:28:33;3.30;65.75
69770;SHT30;57282;52.514;13.458;2022-11-18T07:31:01;3.30;65.34
69770;SHT30;57282;52.514;13.458;2022-11-18T07:33:30;3.33;65.16
69770;SHT30;57282;52.514;13.458;2022-11-18T07:36:01;3.13;63.37
69770;SHT30;57282;52.514;13.458;2022-11-18T07:38:29;3.22;64.43
69770;SHT30;57282;52.514;13.458;2022-11-18T07:41:02;3.23;64.42
69770;SHT30;57282;52.514;13.458;2022-11-18T07:43:31;3.22;64.08
69770;SHT30;57282;52.514;13.458;2022-11-18T07:45:58;3.09;63.96
69770;SHT30;57282;52.514;13.458;2022-11-18T07:48:24;3.16;64.55
69770;SHT30;57282;52.514;13.458;2022-11-18T07:50:52;3.06;63.29
69770;SHT30;57282;52.514;13.458;2022-11-18T07:53:19;2.99;63.62
69770;SHT30;57282;52.514;13.458;2022-11-18T07:55:45;2.96;63.52
69770;SHT30;57282;52.514;13.458;2022-11-18T07:58:12;2.98;64.53
69770;SHT30;57282;52.514;13.458;2022-11-18T08:00:39;3.06;64.50
69770;SHT30;57282;52.514;13.458;2022-11-18T08:03:06;3.19;64.86
69770;SHT30;57282;52.514;13.458;2022-11-18T08:05:32;3.18;63.96
69770;SHT30;57282;52.514;13.458;2022-11-18T08:08:00;3.03;64.23
69770;SHT30;57282;52.514;13.458;2022-11-18T08:10:27;3.09;64.00
69770;SHT30;57282;52.514;13.458;2022-11-18T08:13:00;3.13;64.35
69770;SHT30;57282;52.514;13.458;2022-11-18T08:15:29;3.18;64.07
69770;SHT30;57282;52.514;13.458;2022-11-18T08:17:56;3.16;63.98
69770;SHT30;57282;52.514;13.458;2022-11-18T08:20:23;3.16;65.17
69770;SHT30;57282;52.514;13.458;2022-11-18T08:22:51;3.24;63.82
69770;SHT30;57282;52.514;13.458;2022-11-18T08:25:19;3.26;62.67
69770;SHT30;57282;52.514;13.458;2022-11-18T08:27:46;3.08;63.21
69770;SHT30;57282;52.514;13.458;2022-11-18T08:30:13;3.05;63.44
69770;SHT30;57282;52.514;13.458;2022-11-18T08:32:39;2.98;62.86
69770;SHT30;57282;52.514;13.458;2022-11-18T08:35:06;2.94;64.00
69770;SHT30;57282;52.514;13.458;2022-11-18T08:37:33;2.98;63.74
69770;SHT30;57282;52.514;13.458;2022-11-18T08:40:00;3.02;64.32
69770;SHT30;57282;52.514;13.458;2022-11-18T08:42:28;2.96;63.21
69770;SHT30;57282;52.514;13.458;2022-11-18T08:44:55;3.11;64.36
69770;SHT30;57282;52.514;13.458;2022-11-18T08:47:21;3.13;63.51
69770;SHT30;57282;52.514;13.458;2022-11-18T08:49:48;3.16;64.24
69770;SHT30;57282;52.514;13.458;2022-11-18T08:52:15;3.22;64.07
69770;SHT30;57282;52.514;13.458;2022-11-18T08:54:41;3.23;64.16
69770;SHT30;57282;52.514;13.458;2022-11-18T08:57:08;3.30;62.94
69770;SHT30;57282;52.514;13.458;2022-11-18T08:59:36;3.09;62.23
69770;SHT30;57282;52.514;13.458;2022-11-18T09:02:03;3.01;63.81
69770;SHT30;57282;52.514;13.458;2022-11-18T09:04:32;3.01;63.33
69770;SHT30;57282;52.514;13.458;2022-11-18T09:06:58;2.81;63.21
69770;SHT30;57282;52.514;13.458;2022-11-18T09:09:25;2.87;64.07
69770;SHT30;57282;52.514;13.458;2022-11-18T09:11:51;2.96;64.32
69770;SHT30;57282;52.514;13.458;2022-11-18T09:14:18;3.40;74.86
69770;SHT30;57282;52.514;13.458;2022-11-18T09:16:46;3.54;65.13
69770;SHT30;57282;52.514;13.458;2022-11-18T09:19:13;4.97;86.87
69770;SHT30;57282;52.514;13.458;2022-11-18T09:21:40;8.45;86.68
69770;SHT30;57282;52.514;13.458;2022-11-18T09:24:07;10.46;72.78
69770;SHT30;57282;52.514;13.458;2022-11-18T09:26:36;12.07;60.63
69770;SHT30;57282;52.514;13.458;2022-11-18T09:29:04;13.03;53.78
69770;SHT30;57282;52.514;13.458;2022-11-18T09:31:31;13.92;45.70
69770;SHT30;57282;52.514;13.458;2022-11-18T09:33:59;14.54;42.23
69770;SHT30;57282;52.514;13.458;2022-11-18T09:36:27;14.93;40.03
69770;SHT30;57282;52.514;13.458;2022-11-18T09:38:53;12.08;37.04
69770;SHT30;57282;52.514;13.458;2022-11-18T09:41:33;10.64;42.43
69770;SHT30;57282;52.514;13.458;2022-11-18T09:44:30;9.64;45.20
69770;SHT30;57282;52.514;13.458;2022-11-18T09:47:13;8.86;48.24
69770;SHT30;57282;52.514;13.458;2022-11-18T09:49:53;8.09;48.60
69770;SHT30;57282;52.514;13.458;2022-11-18T09:52:26;7.59;50.07
69770;SHT30;57282;52.514;13.458;2022-11-18T09:54:54;7.35;52.50
69770;SHT30;57282;52.514;13.458;2022-11-18T09:57:24;7.13;53.20
69770;SHT30;57282;52.514;13.458;2022-11-18T09:59:54;6.42;51.57
69770;SHT30;57282;52.514;13.458;2022-11-18T10:02:27;6.44;55.51
69770;SHT30;57282;52.514;13.458;2022-11-18T10:05:13;6.39;55.92
69770;SHT30;57282;52.514;13.458;2022-11-18T10:07:54;5.93;55.06
69770;SHT30;57282;52.514;13.458;2022-11-18T10:10:38;5.87;56.16
69770;SHT30;57282;52.514;13.458;2022-11-18T10:13:21;5.70;55.52
69770;SHT30;57282;52.514;13.458;2022-11-18T10:16:08;5.55;55.64
69770;SHT30;57282;52.514;13.458;2022-11-18T10:18:51;5.45;57.02
69770;SHT30;57282;52.514;13.458;2022-11-18T10:21:39;5.49;57.93
69770;SHT30;57282;52.514;13.458;2022-11-18T10:24:17;5.56;59.31
69770;SHT30;57282;52.514;13.458;2022-11-18T10:26:45;5.56;56.40
69770;SHT30;57282;52.514;13.458;2022-11-18T10:29:12;5.59;58.18
69770;SHT30;57282;52.514;13.458;2022-11-18T10:31:52;5.40;56.26
69770;SHT30;57282;52.514;13.458;2022-11-18T10:34:22;5.24;55.77
69770;SHT30;57282;52.514;13.458;2022-11-18T10:36:59;5.19;56.86
69770;SHT30;57282;52.514;13.458;2022-11-18T10:39:27;5.22;59.03
69770;SHT30;57282;52.514;13.458;2022-11-18T10:41:59;5.40;59.77
69770;SHT30;57282;52.514;13.458;2022-11-18T10:44:30;5.40;57.92
69770;SHT30;57282;52.514;13.458;2022-11-18T10:47:26;5.38;58.83
69770;SHT30;57282;52.514;13.458;2022-11-18T10:49:57;5.48;60.64
69770;SHT30;57282;52.514;13.458;2022-11-18T10:52:27;5.24;56.62
69770;SHT30;57282;52.514;13.458;2022-11-18T10:55:18;5.22;58.18
69770;SHT30;57282;52.514;13.458;2022-11-18T10:57:49;5.09;56.87
69770;SHT30;57282;52.514;13.458;2022-11-18T11:00:49;6.00;69.23
69770;SHT30;57282;52.514;13.458;2022-11-18T11:03:28;9.17;61.79
69770;SHT30;57282;52.514;13.458;2022-11-18T11:06:20;11.74;49.34
69770;SHT30;57282;52.514;13.458;2022-11-18T11:09:07;12.86;45.75
69770;SHT30;57282;52.514;13.458;2022-11-18T11:11:57;13.72;41.23
69770;SHT30;57282;52.514;13.458;2022-11-18T11:14:31;14.41;38.43
69770;SHT30;57282;52.514;13.458;2022-11-18T11:17:05;15.01;35.89
69770;SHT30;57282;52.514;13.458;2022-11-18T11:19:47;15.44;34.82
69770;SHT30;57282;52.514;13.458;2022-11-18T11:22:17;15.66;33.97
69770;SHT30;57282;52.514;13.458;2022-11-18T11:24:46;15.91;33.56
69770;SHT30;57282;52.514;13.458;2022-11-18T11:27:22;16.05;32.84
69770;SHT30;57282;52.514;13.458;2022-11-18T11:30:06;16.18;32.57
69770;SHT30;57282;52.514;13.458;2022-11-18T11:32:48;16.26;32.53
69770;SHT30;57282;52.514;13.458;2022-11-18T11:35:33;16.33;32.10
69770;SHT30;57282;52.514;13.458;2022-11-18T11:38:16;15.61;32.27
69770;SHT30;57282;52.514;13.458;2022-11-18T11:41:01;12.70;35.74
69770;SHT30;57282;52.514;13.458;2022-11-18T11:43:48;11.60;39.00
69770;SHT30;57282;52.514;13.458;2022-11-18T11:46:34;11.46;38.37
69770;SHT30;57282;52.514;13.458;2022-11-18T11:49:16;11.04;39.58
69770;SHT30;57282;52.514;13.458;2022-11-18T11:51:49;10.08;42.25
69770;SHT30;57282;52.514;13.458;2022-11-18T11:54:27;9.79;47.04
69770;SHT30;57282;52.514;13.458;2022-11-18T11:57:15;9.64;43.73
69770;SHT30;57282;52.514;13.458;2022-11-18T11:59:56;9.51;44.34
69770;SHT30;57282;52.514;13.458;2022-11-18T12:02:37;8.86;44.83
69770;SHT30;57282;52.514;13.458;2022-11-18T12:05:17;8.50;45.78
69770;SHT30;57282;52.514;13.458;2022-11-18T12:07:52;9.16;53.16
69770;SHT30;57282;52.514;13.458;2022-11-18T12:10:28;9.08;46.16
69770;SHT30;57282;52.514;13.458;2022-11-18T12:13:34;9.23;47.48
69770;SHT30;57282;52.514;13.458;2022-11-18T12:16:19;8.83;45.17
69770;SHT30;57282;52.514;13.458;2022-11-18T12:18:53;8.58;43.88
69770;SHT30;57282;52.514;13.458;2022-11-18T12:21:55;8.42;50.88
69770;SHT30;57282;52.514;13.458;2022-11-18T12:24:32;7.87;46.53
69770;SHT30;57282;52.514;13.458;2022-11-18T12:27:04;7.35;46.25
69770;SHT30;57282;52.514;13.458;2022-11-18T12:29:42;7.30;47.34
69770;SHT30;57282;52.514;13.458;2022-11-18T12:32:31;7.20;49.18
69770;SHT30;57282;52.514;13.458;2022-11-18T12:35:03;6.75;46.37
69770;SHT30;57282;52.514;13.458;2022-11-18T12:38:04;6.69;48.50
69770;SHT30;57282;52.514;13.458;2022-11-18T12:40:40;9.15;53.10
69770;SHT30;57282;52.514;13.458;2022-11-18T12:46:50;13.02;39.67
69770;SHT30;57282;52.514;13.458;2022-11-18T12:53:00;14.37;35.11
69770;SHT30;57282;52.514;13.458;2022-11-18T12:55:31;14.72;33.32
69770;SHT30;57282;52.514;13.458;2022-11-18T12:58:21;15.08;32.46
69770;SHT30;57282;52.514;13.458;2022-11-18T13:00:50;15.22;31.77
69770;SHT30;57282;52.514;13.458;2022-11-18T13:03:30;15.36;31.44
69770;SHT30;57282;52.514;13.458;2022-11-18T13:06:01;13.66;31.58
69770;SHT30;57282;52.514;13.458;2022-11-18T13:08:34;12.35;33.06
69770;SHT30;57282;52.514;13.458;2022-11-18T13:11:08;11.90;36.79
69770;SHT30;57282;52.514;13.458;2022-11-18T13:13:57;11.63;38.79
69770;SHT30;57282;52.514;13.458;2022-11-18T13:16:43;10.90;36.76
69770;SHT30;57282;52.514;13.458;2022-11-18T13:19:28;10.32;40.87
69770;SHT30;57282;52.514;13.458;2022-11-18T13:21:56;9.88;41.07
69770;SHT30;57282;52.514;13.458;2022-11-18T13:24:43;9.84;43.47
69770;SHT30;57282;52.514;13.458;2022-11-18T13:27:20;9.33;41.35
69770;SHT30;57282;52.514;13.458;2022-11-18T13:29:59;8.71;42.97
69770;SHT30;57282;52.514;13.458;2022-11-18T13:32:31;8.54;47.50
69770;SHT30;57282;52.514;13.458;2022-11-18T13:35:06;8.37;44.14
69770;SHT30;57282;52.514;13.458;2022-11-18T13:37:48;8.33;44.32
69770;SHT30;57282;52.514;13.458;2022-11-18T13:40:22;8.76;48.62
69770;SHT30;57282;52.514;13.458;2022-11-18T13:42:50;9.62;44.40
69770;SHT30;57282;52.514;13.458;2022-11-18T13:45:23;8.80;41.42
69770;SHT30;57282;52.514;13.458;2022-11-18T13:47:57;7.92;42.69
69770;SHT30;57282;52.514;13.458;2022-11-18T13:50:31;7.50;43.71
69770;SHT30;57282;52.514;13.458;2022-11-18T13:53:07;7.00;45.21
69770;SHT30;57282;52.514;13.458;2022-11-18T13:55:46;6.84;44.75
69770;SHT30;57282;52.514;13.458;2022-11-18T13:58:32;6.66;46.36
69770;SHT30;57282;52.514;13.458;2022-11-18T14:01:04;6.45;45.46
69770;SHT30;57282;52.514;13.458;2022-11-18T14:03:47;6.28;46.51
69770;SHT30;57282;52.514;13.458;2022-11-18T14:06:26;6.29;47.65
69770;SHT30;57282;52.514;13.458;2022-11-18T14:09:17;6.13;47.59
69770;SHT30;57282;52.514;13.458;2022-11-18T14:11:58;6.13;49.05
69770;SHT30;57282;52.514;13.458;2022-11-18T14:14:29;6.14;49.32
69770;SHT30;57282;52.514;13.458;2022-11-18T14:17:14;6.11;48.46
69770;SHT30;57282;52.514;13.458;2022-11-18T14:19:44;6.08;48.67
69770;SHT30;57282;52.514;13.458;2022-11-18T14:22:14;5.96;49.25
69770;SHT30;57282;52.514;13.458;2022-11-18T14:24:43;5.84;48.38
69770;SHT30;57282;52.514;13.458;2022-11-18T14:27:33;5.74;49.30
69770;SHT30;57282;52.514;13.458;2022-11-18T14:33:09;5.63;49.05
69770;SHT30;57282;52.514;13.458;2022-11-18T14:35:40;5.74;49.71
69770;SHT30;57282;52.514;13.458;2022-11-18T14:38:12;5.59;49.68
69770;SHT30;57282;52.514;13.458;2022-11-18T14:40:40;5.45;49.75
69770;SHT30;57282;52.514;13.458;2022-11-18T14:43:10;5.36;50.08
69770;SHT30;57282;52.514;13.458;2022-11-18T14:45:38;5.25;52.19
69770;SHT30;57282;52.514;13.458;2022-11-18T14:48:08;5.09;49.75
69770;SHT30;57282;52.514;13.458;2022-11-18T14:50:38;5.11;50.39
69770;SHT30;57282;52.514;13.458;2022-11-18T14:53:05;4.97;49.95
69770;SHT30;57282;52.514;13.458;2022-11-18T14:55:34;4.90;51.18
69770;SHT30;57282;52.514;13.458;2022-11-18T14:58:01;4.91;51.06
69770;SHT30;57282;52.514;13.458;2022-11-18T15:00:28;4.95;51.28
69770;SHT30;57282;52.514;13.458;2022-11-18T15:02:54;5.05;52.70
69770;SHT30;57282;52.514;13.458;2022-11-18T15:05:23;5.01;51.21
69770;SHT30;57282;52.514;13.458;2022-11-18T15:07:53;4.88;50.91
69770;SHT30;57282;52.514;13.458;2022-11-18T15:10:20;5.05;51.99
69770;SHT30;57282;52.514;13.458;2022-11-18T15:12:46;5.08;51.59
69770;SHT30;57282;52.514;13.458;2022-11-18T15:15:15;5.01;51.46
69770;SHT30;57282;52.514;13.458;2022-11-18T15:17:42;4.71;49.45
69770;SHT30;57282;52.514;13.458;2022-11-18T15:20:11;4.73;51.19
69770;SHT30;57282;52.514;13.458;2022-11-18T15:22:42;4.74;51.35
69770;SHT30;57282;52.514;13.458;2022-11-18T15:25:10;4.76;51.44
69770;SHT30;57282;52.514;13.458;2022-11-18T15:27:37;4.85;52.26
69770;SHT30;57282;52.514;13.458;2022-11-18T15:30:05;4.80;51.97
69770;SHT30;57282;52.514;13.458;2022-11-18T15:32:33;4.77;51.60
69770;SHT30;57282;52.514;13.458;2022-11-18T15:34:59;4.80;51.33
69770;SHT30;57282;52.514;13.458;2022-11-18T15:37:26;4.66;51.55
69770;SHT30;57282;52.514;13.458;2022-11-18T15:39:53;4.67;51.41
69770;SHT30;57282;52.514;13.458;2022-11-18T15:42:21;4.57;51.13
69770;SHT30;57282;52.514;13.458;2022-11-18T15:44:47;4.64;52.47
69770;SHT30;57282;52.514;13.458;2022-11-18T15:47:14;4.66;52.15
69770;SHT30;57282;52.514;13.458;2022-11-18T15:49:41;4.71;52.89
69770;SHT30;57282;52.514;13.458;2022-11-18T15:52:14;4.74;52.12
69770;SHT30;57282;52.514;13.458;2022-11-18T15:54:42;4.74;52.08
69770;SHT30;57282;52.514;13.458;2022-11-18T15:57:09;4.70;52.38
69770;SHT30;57282;52.514;13.458;2022-11-18T15:59:37;4.63;51.31
69770;SHT30;57282;52.514;13.458;2022-11-18T16:02:04;4.76;52.96
69770;SHT30;57282;52.514;13.458;2022-11-18T16:04:33;4.70;52.13
69770;SHT30;57282;52.514;13.458;2022-11-18T16:07:12;4.71;52.42
69770;SHT30;57282;52.514;13.458;2022-11-18T16:09:38;4.63;52.69
69770;SHT30;57282;52.514;13.458;2022-11-18T16:12:23;4.64;52.01
69770;SHT30;57282;52.514;13.458;2022-11-18T16:15:11;4.56;51.66
69770;SHT30;57282;52.514;13.458;2022-11-18T16:17:56;4.46;51.72
69770;SHT30;57282;52.514;13.458;2022-11-18T16:20:25;4.35;52.06